createdAt,value
2023-03-29T00:00:27.557Z,0.90
2023-03-29T00:03:51.985Z,1.00
2023-03-29T00:07:16.365Z,0.90
2023-03-29T00:10:40.159Z,1.07
2023-03-29T00:14:03.736Z,0.90
2023-03-29T00:17:28.938Z,0.90
2023-03-29T00:20:56.612Z,1.10
2023-03-29T00:24:21.157Z,1.03
2023-03-29T00:27:44.983Z,1.17
2023-03-29T00:31:12.440Z,1.00
2023-03-29T00:34:37.766Z,1.10
2023-03-29T00:38:01.637Z,1.10
2023-03-29T00:41:26.082Z,1.03
2023-03-29T00:45:17.374Z,1.17
2023-03-29T00:48:41.237Z,1.23
2023-03-29T00:52:07.424Z,1.10
2023-03-29T00:55:37.300Z,1.03
2023-03-29T00:59:06.573Z,1.00
2023-03-29T01:02:34.769Z,0.90
2023-03-29T01:06:06.332Z,1.20
2023-03-29T01:09:35.305Z,1.13
2023-03-29T01:13:05.860Z,1.10
2023-03-29T01:16:32.885Z,1.03
2023-03-29T01:20:07.838Z,1.30
2023-03-29T01:23:53.718Z,1.20
2023-03-29T01:27:25.390Z,1.20
2023-03-29T01:31:00.461Z,0.90
2023-03-29T01:34:31.396Z,1.10
2023-03-29T01:38:00.840Z,1.20
2023-03-29T01:41:35.850Z,1.50
2023-03-29T01:45:15.490Z,1.13
2023-03-29T01:48:47.274Z,1.13
2023-03-29T01:52:17.876Z,1.00
2023-03-29T01:55:49.070Z,1.23
2023-03-29T01:59:18.282Z,1.10
2023-03-29T02:02:45.394Z,1.00
2023-03-29T02:06:13.817Z,0.90
2023-03-29T02:09:39.692Z,1.13
2023-03-29T02:13:03.568Z,0.90
2023-03-29T02:16:38.908Z,1.13
2023-03-29T02:20:14.246Z,1.20
2023-03-29T02:23:45.260Z,1.20
2023-03-29T02:27:09.831Z,1.00
2023-03-29T02:30:39.141Z,1.30
2023-03-29T02:34:07.875Z,1.30
2023-03-29T02:37:36.336Z,1.10
2023-03-29T02:41:02.914Z,1.00
2023-03-29T02:44:29.948Z,1.10
2023-03-29T02:47:57.408Z,1.10
2023-03-29T02:51:24.620Z,1.10
2023-03-29T02:54:51.388Z,1.10
2023-03-29T02:58:17.068Z,0.70
2023-03-29T03:01:42.662Z,0.97
2023-03-29T03:05:07.363Z,0.83
2023-03-29T03:08:32.255Z,1.20
2023-03-29T03:11:56.182Z,1.37
2023-03-29T03:15:23.325Z,1.10
2023-03-29T03:18:48.669Z,1.07
2023-03-29T03:22:12.889Z,0.90
2023-03-29T03:25:37.031Z,1.03
2023-03-29T03:29:00.868Z,0.90
2023-03-29T03:32:49.822Z,1.10
2023-03-29T03:36:47.229Z,0.70
2023-03-29T03:40:12.448Z,1.00
2023-03-29T03:43:37.131Z,1.30
2023-03-29T03:47:01.055Z,0.80
2023-03-29T03:50:26.935Z,1.10
2023-03-29T03:53:51.639Z,1.00
2023-03-29T03:57:50.284Z,1.07
2023-03-29T04:01:17.020Z,1.10
2023-03-29T04:04:49.664Z,0.93
2023-03-29T04:08:17.146Z,0.97
2023-03-29T04:12:00.101Z,1.00
2023-03-29T04:15:24.306Z,1.10
2023-03-29T04:18:56.133Z,1.03
2023-03-29T04:22:20.425Z,1.00
2023-03-29T04:25:46.731Z,1.10
2023-03-29T04:29:44.798Z,1.00
2023-03-29T04:33:19.438Z,0.90
2023-03-29T04:36:50.206Z,0.83
2023-03-29T04:40:19.418Z,0.90
2023-03-29T04:43:55.968Z,0.80
2023-03-29T04:47:23.968Z,0.80
2023-03-29T04:51:08.462Z,0.90
2023-03-29T04:54:32.445Z,1.00
2023-03-29T04:58:32.026Z,0.80
2023-03-29T05:01:57.706Z,0.90
2023-03-29T05:05:21.825Z,0.90
2023-03-29T05:08:47.094Z,1.00
2023-03-29T05:12:17.994Z,1.10
2023-03-29T05:15:49.208Z,0.73
2023-03-29T05:19:14.469Z,0.90
2023-03-29T05:22:43.492Z,0.77
2023-03-29T05:26:14.572Z,0.80
2023-03-29T05:29:42.545Z,0.90
2023-03-29T05:33:26.378Z,0.80
2023-03-29T05:36:51.729Z,1.03
2023-03-29T05:40:16.530Z,0.80
2023-03-29T05:44:00.689Z,0.87
2023-03-29T05:47:25.883Z,0.70
2023-03-29T05:50:50.214Z,1.10
2023-03-29T05:54:16.470Z,0.90
2023-03-29T05:57:40.512Z,1.03
2023-03-29T06:01:05.480Z,1.10
2023-03-29T06:04:54.089Z,1.00
2023-03-29T06:08:20.864Z,1.00
2023-03-29T06:11:56.360Z,1.00
2023-03-29T06:15:26.862Z,0.70
2023-03-29T06:19:01.441Z,0.70
2023-03-29T06:22:27.062Z,0.97
2023-03-29T06:25:51.613Z,1.00
2023-03-29T06:29:17.354Z,1.07
2023-03-29T06:32:43.912Z,1.00
2023-03-29T06:36:20.193Z,1.00
2023-03-29T06:39:44.641Z,1.00
2023-03-29T06:43:22.732Z,0.93
2023-03-29T06:46:52.367Z,1.00
2023-03-29T06:50:18.202Z,0.80
2023-03-29T06:54:08.409Z,0.90
2023-03-29T06:57:34.977Z,0.80
2023-03-29T07:01:02.582Z,0.90
2023-03-29T07:04:38.606Z,0.83
2023-03-29T07:08:15.180Z,0.80
2023-03-29T07:11:59.704Z,0.60
2023-03-29T07:15:25.080Z,0.70
2023-03-29T07:19:12.148Z,0.90
2023-03-29T07:22:50.959Z,0.90
2023-03-29T07:26:28.410Z,0.70
2023-03-29T07:29:54.336Z,0.80
2023-03-29T07:33:18.896Z,0.80
2023-03-29T07:36:54.597Z,0.93
2023-03-29T07:40:23.421Z,0.90
2023-03-29T07:43:54.158Z,0.70
2023-03-29T07:47:21.331Z,0.80
2023-03-29T07:50:45.311Z,0.93
2023-03-29T07:54:09.971Z,0.70
2023-03-29T07:57:44.127Z,0.60
2023-03-29T08:01:10.474Z,1.10
2023-03-29T08:04:56.745Z,0.87
2023-03-29T08:08:43.384Z,0.93
2023-03-29T08:12:11.040Z,0.90
2023-03-29T08:15:37.947Z,0.73
2023-03-29T08:19:02.340Z,0.83
2023-03-29T08:22:41.749Z,0.70
2023-03-29T08:26:26.725Z,0.80
2023-03-29T08:29:52.037Z,0.80
2023-03-29T08:33:17.657Z,0.97
2023-03-29T08:36:45.689Z,0.80
2023-03-29T08:40:22.891Z,0.70
2023-03-29T08:44:12.242Z,0.90
2023-03-29T08:48:13.423Z,0.70
2023-03-29T08:51:41.500Z,0.70
2023-03-29T08:55:16.479Z,0.70
2023-03-29T08:59:00.622Z,0.80
2023-03-29T09:02:32.559Z,0.70
2023-03-29T09:06:03.955Z,0.80
2023-03-29T09:09:34.448Z,0.87
2023-03-29T09:13:27.475Z,0.77
2023-03-29T09:17:04.744Z,0.90
2023-03-29T09:20:41.293Z,0.70
2023-03-29T09:24:22.333Z,0.80
2023-03-29T09:28:05.812Z,0.80
2023-03-29T09:31:44.081Z,0.70
2023-03-29T09:35:18.349Z,0.70
2023-03-29T09:38:45.269Z,0.90
2023-03-29T09:42:14.102Z,0.80
2023-03-29T09:45:41.250Z,0.80
2023-03-29T09:49:10.998Z,0.90
2023-03-29T09:52:35.107Z,0.80
2023-03-29T09:56:08.434Z,0.80
2023-03-29T09:59:41.576Z,0.80
2023-03-29T10:03:09.264Z,0.90
2023-03-29T10:06:50.391Z,0.80
2023-03-29T10:10:24.832Z,1.13
2023-03-29T10:13:51.344Z,0.80
2023-03-29T10:17:21.779Z,0.80
2023-03-29T10:20:47.482Z,0.90
2023-03-29T10:24:11.513Z,1.03
2023-03-29T10:27:35.859Z,1.00
2023-03-29T10:31:03.880Z,1.30
2023-03-29T10:34:29.956Z,0.97
2023-03-29T10:37:59.319Z,1.00
2023-03-29T10:41:24.958Z,1.00
2023-03-29T10:44:56.416Z,1.10
2023-03-29T10:48:26.001Z,0.90
2023-03-29T10:51:51.541Z,1.00
2023-03-29T10:55:16.804Z,1.03
2023-03-29T10:59:01.135Z,1.10
2023-03-29T11:02:57.071Z,1.03
2023-03-29T11:06:33.092Z,1.00
2023-03-29T11:10:11.816Z,0.80
2023-03-29T11:13:46.423Z,0.90
2023-03-29T11:17:28.323Z,1.10
2023-03-29T11:21:02.107Z,1.17
2023-03-29T11:24:47.556Z,1.00
2023-03-29T11:28:22.285Z,0.90
2023-03-29T11:31:57.962Z,1.20
2023-03-29T11:35:46.983Z,0.97
2023-03-29T11:39:20.159Z,1.73
2023-03-29T11:42:49.583Z,1.00
2023-03-29T11:46:19.304Z,1.13
2023-03-29T11:49:51.678Z,0.90
2023-03-29T11:53:22.555Z,1.10
2023-03-29T11:56:53.233Z,0.90
2023-03-29T12:00:22.742Z,1.00
2023-03-29T12:03:50.968Z,0.90
2023-03-29T12:07:26.495Z,0.90
2023-03-29T12:11:02.465Z,0.87
2023-03-29T12:14:45.929Z,1.00
2023-03-29T12:18:23.920Z,0.90
2023-03-29T12:21:49.930Z,0.80
2023-03-29T12:25:23.241Z,1.30
2023-03-29T12:29:18.890Z,1.30
2023-03-29T12:32:56.095Z,0.97
2023-03-29T12:37:21.898Z,1.00
2023-03-29T12:41:16.560Z,0.90
2023-03-29T12:45:01.625Z,1.20
2023-03-29T12:48:31.788Z,0.80
2023-03-29T12:51:58.155Z,1.10
2023-03-29T12:55:30.710Z,1.10
2023-03-29T12:59:07.528Z,1.10
2023-03-29T13:02:39.194Z,1.03
2023-03-29T13:06:06.182Z,1.10
2023-03-29T13:09:32.257Z,1.27
2023-03-29T13:12:57.724Z,1.03
2023-03-29T13:16:31.808Z,0.90
2023-03-29T13:20:32.080Z,1.10
2023-03-29T13:24:11.818Z,0.90
2023-03-29T13:27:46.100Z,0.90
2023-03-29T13:31:30.006Z,0.80
2023-03-29T13:35:03.392Z,0.80
2023-03-29T13:38:31.787Z,1.10
2023-03-29T13:42:07.250Z,0.93
2023-03-29T13:45:34.144Z,1.10
2023-03-29T13:49:19.766Z,0.87
2023-03-29T13:52:48.515Z,1.00
2023-03-29T13:56:20.992Z,1.00
2023-03-29T13:59:52.437Z,1.00
2023-03-29T14:03:25.696Z,1.00
2023-03-29T14:06:56.442Z,1.50
2023-03-29T14:10:24.157Z,0.80
2023-03-29T14:13:48.616Z,1.10
2023-03-29T14:17:20.353Z,0.90
2023-03-29T14:20:46.995Z,0.80
2023-03-29T14:24:21.470Z,0.80
2023-03-29T14:27:45.518Z,0.90
2023-03-29T14:31:19.599Z,0.80
2023-03-29T14:34:43.733Z,0.80
2023-03-29T14:38:07.767Z,0.80
2023-03-29T14:41:36.763Z,0.70
2023-03-29T14:45:05.774Z,0.77
2023-03-29T14:48:33.117Z,0.70
2023-03-29T14:51:57.945Z,0.70
2023-03-29T14:55:23.913Z,0.70
2023-03-29T14:58:49.312Z,0.73
2023-03-29T15:02:28.408Z,0.80
2023-03-29T15:05:58.350Z,0.90
2023-03-29T15:09:28.901Z,0.63
2023-03-29T15:12:54.593Z,0.93
2023-03-29T15:16:23.002Z,0.83
2023-03-29T15:19:46.870Z,0.80
2023-03-29T15:23:21.596Z,0.90
2023-03-29T15:26:45.875Z,0.70
2023-03-29T15:30:15.168Z,0.90
2023-03-29T15:33:42.105Z,0.90
2023-03-29T15:37:07.964Z,0.90
2023-03-29T15:40:33.111Z,0.80
2023-03-29T15:43:57.547Z,0.90
2023-03-29T15:47:21.139Z,0.90
2023-03-29T15:50:46.849Z,0.73
2023-03-29T15:54:10.864Z,0.90
2023-03-29T15:57:35.197Z,1.00
2023-03-29T16:01:11.139Z,0.87
2023-03-29T16:04:34.777Z,0.97
2023-03-29T16:07:59.584Z,1.00
2023-03-29T16:11:23.936Z,1.00
2023-03-29T16:14:47.477Z,1.37
2023-03-29T16:18:11.291Z,1.30
2023-03-29T16:21:35.315Z,1.07
2023-03-29T16:25:00.296Z,1.73
2023-03-29T16:28:23.859Z,1.30
2023-03-29T16:31:49.283Z,1.30
2023-03-29T16:35:21.858Z,1.10
2023-03-29T16:38:45.312Z,1.10
2023-03-29T16:42:12.342Z,1.00
2023-03-29T16:45:36.234Z,1.10
2023-03-29T16:49:00.091Z,0.90
2023-03-29T16:52:24.110Z,1.40
2023-03-29T16:55:48.497Z,2.50
2023-03-29T16:59:13.479Z,2.00
2023-03-29T17:02:36.998Z,1.47
2023-03-29T17:06:00.602Z,1.30
2023-03-29T17:09:24.141Z,2.40
2023-03-29T17:12:47.525Z,1.07
2023-03-29T17:16:12.409Z,1.20
2023-03-29T17:19:36.002Z,1.20
2023-03-29T17:22:59.562Z,0.97
2023-03-29T17:26:23.023Z,1.20
2023-03-29T17:29:46.499Z,1.10
2023-03-29T17:33:11.405Z,1.10
2023-03-29T17:36:37.448Z,1.13
2023-03-29T17:40:01.015Z,0.80
2023-03-29T17:43:24.803Z,0.90
2023-03-29T17:46:48.582Z,0.97
2023-03-29T17:50:14.052Z,1.03
2023-03-29T17:53:37.450Z,1.13
2023-03-29T17:57:01.074Z,1.10
2023-03-29T18:00:24.803Z,1.10
2023-03-29T18:03:49.086Z,1.00
2023-03-29T18:07:15.363Z,1.10
2023-03-29T18:10:39.879Z,0.93
2023-03-29T18:14:04.934Z,1.40
2023-03-29T18:17:28.495Z,1.43
2023-03-29T18:20:52.190Z,1.23
2023-03-29T18:24:17.191Z,1.10
2023-03-29T18:27:41.276Z,1.10
2023-03-29T18:31:05.863Z,1.23
2023-03-29T18:34:29.809Z,1.10
2023-03-29T18:37:53.383Z,1.10
2023-03-29T18:41:18.179Z,1.10
2023-03-29T18:44:42.214Z,1.40
2023-03-29T18:48:08.058Z,1.07
2023-03-29T18:51:32.938Z,1.10
2023-03-29T18:54:56.433Z,1.57
2023-03-29T18:58:23.898Z,1.30
2023-03-29T19:01:47.436Z,1.13
2023-03-29T19:05:11.750Z,1.60
2023-03-29T19:08:36.593Z,0.90
2023-03-29T19:12:00.174Z,1.10
2023-03-29T19:15:25.424Z,1.13
2023-03-29T19:18:48.972Z,1.23
2023-03-29T19:22:12.527Z,1.37
2023-03-29T19:25:36.442Z,1.10
2023-03-29T19:29:00.121Z,1.50
2023-03-29T19:32:25.080Z,1.37
2023-03-29T19:35:50.782Z,1.20
2023-03-29T19:39:14.220Z,1.13
2023-03-29T19:42:37.997Z,1.37
2023-03-29T19:46:08.267Z,1.30
2023-03-29T19:49:36.292Z,1.30
2023-03-29T19:53:00.805Z,1.20
2023-03-29T19:56:26.769Z,1.40
2023-03-29T19:59:50.820Z,1.63
2023-03-29T20:03:15.655Z,1.80
2023-03-29T20:06:40.636Z,1.73
2023-03-29T20:10:04.414Z,2.30
2023-03-29T20:13:37.716Z,1.90
2023-03-29T20:17:03.373Z,2.30
2023-03-29T20:20:26.943Z,2.03
2023-03-29T20:23:51.743Z,2.10
2023-03-29T20:27:15.774Z,2.40
2023-03-29T20:30:40.232Z,1.77
2023-03-29T20:34:03.761Z,1.87
2023-03-29T20:37:27.247Z,1.90
2023-03-29T20:40:52.013Z,2.00
2023-03-29T20:44:16.850Z,1.57
2023-03-29T20:47:42.486Z,1.57
2023-03-29T20:51:11.048Z,1.77
2023-03-29T20:54:35.127Z,1.80
2023-03-29T20:58:01.887Z,1.60
2023-03-29T21:01:25.763Z,1.60
2023-03-29T21:04:51.954Z,1.47
2023-03-29T21:08:17.497Z,1.80
2023-03-29T21:11:41.006Z,1.43
2023-03-29T21:15:07.935Z,1.90
2023-03-29T21:18:31.474Z,1.30
2023-03-29T21:21:55.000Z,1.50
2023-03-29T21:25:18.833Z,1.50
2023-03-29T21:28:42.391Z,1.30
2023-03-29T21:32:07.263Z,1.20
2023-03-29T21:35:33.266Z,1.30
2023-03-29T21:38:57.208Z,1.23
2023-03-29T21:42:20.661Z,1.53
2023-03-29T21:45:44.264Z,1.00
2023-03-29T21:49:09.118Z,0.97
2023-03-29T21:52:32.553Z,1.10
2023-03-29T21:55:56.460Z,0.97
2023-03-29T21:59:20.544Z,1.00
2023-03-29T22:02:45.819Z,1.70
2023-03-29T22:06:15.193Z,1.30
2023-03-29T22:09:41.307Z,1.20
2023-03-29T22:13:04.909Z,1.20
2023-03-29T22:16:28.542Z,1.40
2023-03-29T22:19:52.407Z,1.13
2023-03-29T22:23:17.234Z,1.00
2023-03-29T22:26:41.046Z,1.10
2023-03-29T22:30:06.718Z,1.30
2023-03-29T22:33:30.463Z,1.13
2023-03-29T22:36:53.968Z,1.30
2023-03-29T22:40:19.005Z,0.90
2023-03-29T22:43:43.170Z,1.40
2023-03-29T22:47:06.894Z,1.10
2023-03-29T22:50:30.604Z,1.27
2023-03-29T22:53:54.422Z,1.60
2023-03-29T22:57:19.293Z,1.57
2023-03-29T23:00:42.956Z,1.30
2023-03-29T23:04:07.006Z,1.77
2023-03-29T23:07:30.637Z,1.60
2023-03-29T23:10:54.445Z,1.30
2023-03-29T23:14:19.347Z,1.20
2023-03-29T23:17:42.993Z,1.30
2023-03-29T23:21:07.530Z,1.33
2023-03-29T23:24:31.694Z,2.00
2023-03-29T23:27:55.828Z,1.40
2023-03-29T23:31:20.707Z,1.40
2023-03-29T23:34:44.500Z,1.20
2023-03-29T23:38:08.519Z,1.50
2023-03-29T23:41:32.084Z,1.63
2023-03-29T23:44:55.896Z,1.50
2023-03-29T23:48:20.892Z,1.30
2023-03-29T23:51:44.892Z,1.33
2023-03-29T23:55:13.463Z,1.20
2023-03-29T23:58:38.778Z,1.10
